Terminal Aerodrome Forecast
Issued by NWS Brownsville, TX

Home | Current Version | Previous Version | Text Only | Print | Product List | Glossary On
Versions: 1 2 3 4 5 6 7 8 9 10 11 12 13 14 15 16 17 18 19 20 21 22 23 24
000
FTUS44 KBRO 291317 AAB
TAFMFE
TAF AMD
KMFE 291317Z 2913/3012 13008KT P6SM TSRA OVC025CB
      TEMPO 2913/2916 VRB25G35KT 1SM +TSRA BR FEW008 BKN015CB
     FM291700 15013KT P6SM SCT025 BKN035
     FM300000 14016G21KT P6SM FEW250
     FM300300 13013KT P6SM OVC030
     FM300600 13007KT P6SM OVC015=

USA.gov is the U.S. government's official web portal to all federal, state and local government web resources and services.